• Join FlightAware (Why Join?)
  • Login
  • US Flag 
01:12AM EDT


 

Airport Tracker/Info


-or-


 

Live Flight TrackerFlight Track Log ✈ FIN666 ✈ 19-Oct-2013 ✈ EKCH / CPH - EFHK / HEL

Flight Track Log - Related Links

Times and Time Zones

All times are in EDT time to prevent confusion due to time zone crossing. See the FIN666 flight status page for this flight to view local times or setup timezone preferences in your user account.

Time Position Orientation Groundspeed Altitude Reporting Facility
EDT Latitude Longitude Course Direction KTS MPH feet Rate Location/Type
07:31AM 55.8486 13.1329 49° Northeast  Level Estimated
07:32AM 55.9251 13.2931 50° Northeast  Level Estimated
07:33AM 56.0014 13.4539 50° Northeast  Level Estimated
07:34AM 56.0774 13.6154 50° Northeast  Level Estimated
07:35AM 56.1533 13.7775 50° Northeast  Level Estimated
07:36AM 56.2289 13.9403 50° Northeast  Level Estimated
07:37AM 56.3044 14.1037 50° Northeast  Level Estimated
07:38AM 56.3796 14.2678 50° Northeast  Level Estimated
07:39AM 56.4546 14.4325 50° Northeast  Level Estimated
07:40AM 56.5293 14.5978 51° Northeast  Level Estimated
07:41AM 56.6050 14.7663 51° Northeast  Level Estimated
07:42AM 56.6804 14.9355 51° Northeast  Level Estimated
07:43AM 56.7556 15.1053 51° Northeast  Level Estimated
07:44AM 56.8306 15.2759 51° Northeast  Level Estimated
07:45AM 56.9053 15.4471 51° Northeast  Level Estimated
07:46AM 56.9799 15.6190 51° Northeast  Level Estimated
07:47AM 57.0541 15.7915 52° Northeast  Level Estimated
07:48AM 57.1293 15.9675 52° Northeast  Level Estimated
07:49AM 57.2042 16.1441 52° Northeast  Level Estimated
07:50AM 57.2788 16.3214 52° Northeast  Level Estimated
07:51AM 57.3532 16.4995 52° Northeast  Level Estimated
07:52AM 57.4274 16.6782 52° Northeast  Level Estimated
07:53AM 57.5013 16.8577 52° Northeast  Level Estimated
07:54AM 57.5749 17.0380 53° Northeast  Level Estimated
07:55AM 57.6483 17.2189 53° Northeast  Level Estimated
07:56AM 57.7214 17.4006 53° Northeast  Level Estimated
07:57AM 57.7943 17.5830 53° Northeast  Level Estimated
07:58AM 57.8669 17.7662 53° Northeast  Level Estimated
07:59AM 57.9392 17.9501 53° Northeast  Level Estimated
08:00AM 58.0113 18.1347 54° Northeast  Level Estimated
08:01AM 58.0831 18.3201 54° Northeast  Level Estimated
08:02AM 58.1546 18.5062 54° Northeast  Level Estimated
08:03AM 58.2259 18.6931 54° Northeast  Level Estimated
08:04AM 58.2969 18.8808 54° Northeast  Level Estimated
08:05AM 58.3676 19.0691 54° Northeast  Level Estimated
08:06AM 58.4380 19.2583 55° Northeast  Level Estimated
08:07AM 58.5081 19.4482 55° Northeast  Level Estimated
08:08AM 58.5780 19.6388 55° Northeast  Level Estimated
08:09AM 58.6476 19.8302 55° Northeast  Level Estimated
08:10AM 58.7169 20.0224 55° Northeast  Level Estimated
08:11AM 58.7859 20.2153 55° Northeast  Level Estimated
08:12AM 58.8546 20.4090 55° Northeast  Level Estimated
08:13AM 58.9231 20.6035 56° Northeast  Level Estimated
08:14AM 58.9912 20.7988 56° Northeast  Level Estimated
08:15AM 59.0591 20.9948 56° Northeast  Level Estimated
08:16AM 59.1266 21.1916 56° Northeast  Level Estimated
08:17AM 59.1939 21.3892 56° Northeast  Level Estimated
08:18AM 59.2608 21.5875 57° Northeast  Level Estimated
08:19AM 59.3275 21.7866 57° Northeast  Level Estimated
08:20AM 59.3938 21.9865 57° Northeast  Level Estimated
08:21AM 59.4599 22.1872 57° Northeast  Level Estimated
08:22AM 59.5256 22.3887 57° Northeast  Level Estimated
08:23AM 59.5910 22.5910 57° Northeast  Level Estimated
08:24AM 59.6561 22.7940 58° Northeast  Level Estimated
08:25AM 59.7209 22.9979 58° Northeast  Level Estimated
08:26AM 59.7854 23.2025 58° Northeast  Level Estimated
08:27AM 59.8495 23.4079 58° Northeast  Level Estimated
08:28AM 59.9133 23.6141 58° Northeast  Level Estimated
08:29AM 59.9768 23.8211 58° Northeast  Level Estimated
08:30AM 60.0400 24.0289 59° Northeast  Level Estimated
08:31AM 60.1029 24.2375 59° Northeast  Level Estimated
08:32AM 60.1654 24.4468 59° Northeast  Level Estimated
08:33AM 60.2276 24.6570 59° Northeast  Level Estimated
08:34AM 60.2895 24.8680 59° Northeast  Level Estimated
08:35AM 60.3172 24.9633 60° Northeast  Level Estimated
08:36AM 60.3172 24.9633 37° Northeast  Level Estimated
08:37AM 60.3172 24.9633 37° Northeast  Level Estimated
08:38AM 60.3172 24.9633 37° Northeast  Level Estimated
08:39AM 60.3172 24.9633 37° Northeast  Level Estimated
08:40AM 60.3172 24.9633 37° Northeast  Level Estimated
08:41AM 60.3172 24.9633 37° Northeast  Level Estimated
08:42AM 60.3172 24.9633 37° Northeast  Level Estimated
08:43AM 60.3172 24.9633 37° Northeast  Level Estimated
08:44AM 60.3172 24.9633 37° Northeast  Level Estimated
08:45AM 60.3172 24.9633 37° Northeast  Level Estimated
08:46AM 60.3172 24.9633 37° Northeast  Level Estimated